KEUG/EUG METAR and TAF weather

Enter ICAO airport designator
Station Type Date Time Source
KEUG METAR 2021/09/24 02:54 UTC NOAA

KEUG 240254Z 01008KT 10SM SCT250 19/12 A3011 RMK AO2 SLP196 T01890122 56010


Station Type Date Time Source
KEUG Decoded METAR 2021/09/24 02:54 UTC NOAA

MAHLON SWEET FIELD, OR, United States (KEUG) 44-08N 123-13W 114M
Sep 23, 2021 - 10:54 PM EDT / 2021.09.24 0254 UTC
Wind: from the N (010 degrees) at 9 MPH (8 KT):0
Visibility: 10 mile(s):0
Sky conditions: partly cloudy
Temperature: 66.0 F (18.9 C)
Dew Point: 54.0 F (12.2 C)
Relative Humidity: 65%
Pressure (altimeter): 30.11 in. Hg (1019 hPa)
Pressure tendency: 0.03 inches (1.0 hPa) lower than three hours ago
ob: KEUG 240254Z 01008KT 10SM SCT250 19/12 A3011 RMK AO2 SLP196 T01890122 56010
cycle: 3

Station Type Date Time Source
KEUG TAF 2021/09/23 18:33 UTC NOAA

TAF KEUG 231731Z 2318/2418 01012KT P6SM OVC008
FM231830 01012KT P6SM FEW150
FM232000 02013G19KT P6SM FEW250
FM240000 01020G26KT P6SM SKC
FM240500 35005KT P6SM SKC
FM241200 VRB03KT P6SM SKC

Example: see airport list